Time;durP1;ratioP1;P1;durP2;ratioP2;P2;SDS_P1;SDS_P2;PMS_P1;PMS_P2;Temp;Humidity;BMP_temperature;BMP_pressure;BME280_temperature;BME280_humidity;BME280_pressure;Samples;Min_cycle;Max_cycle;Signal;HPM_P1;HPM_P2
2021/11/30 00:01:05;;;;;;;9.57;7.38;;;3.70;1.00;;;;;;5058499;28;20220;-79
2021/11/30 00:03:33;;;;;;;9.05;7.10;;;3.80;1.00;;;;;;5060029;28;20228;-79
2021/11/30 00:06:00;;;;;;;7.55;6.43;;;3.80;1.00;;;;;;5059409;28;20228;-80
2021/11/30 00:08:30;;;;;;;8.38;7.07;;;3.80;1.00;;;;;;5057408;28;20229;-79
2021/11/30 00:10:59;;;;;;;7.70;6.90;;;3.80;1.00;;;;;;5059036;28;20225;-80
2021/11/30 00:13:29;;;;;;;8.48;7.55;;;3.80;1.00;;;;;;5061541;28;20307;-79
2021/11/30 00:15:57;;;;;;;8.13;6.45;;;3.80;1.00;;;;;;5069304;28;20217;-81
2021/11/30 00:18:26;;;;;;;8.80;6.47;;;3.80;1.00;;;;;;5055088;28;20715;-80
2021/11/30 00:20:54;;;;;;;9.77;7.38;;;3.70;1.00;;;;;;5061521;28;20264;-79
2021/11/30 00:23:21;;;;;;;8.40;7.07;;;3.70;1.00;;;;;;5041046;28;20289;-80
2021/11/30 00:25:48;;;;;;;8.18;7.10;;;3.70;1.00;;;;;;5055207;28;20229;-79
2021/11/30 00:28:15;;;;;;;12.73;8.20;;;3.70;1.00;;;;;;5051865;28;21059;-80
2021/11/30 00:33:27;;;;;;;9.05;7.70;;;3.70;1.00;;;;;;5291308;22;20250;-83
2021/11/30 00:35:54;;;;;;;11.32;8.52;;;3.60;1.00;;;;;;5127991;27;20219;-84
2021/11/30 00:38:22;;;;;;;11.35;8.98;;;3.60;1.00;;;;;;5111163;27;20306;-83
2021/11/30 00:40:50;;;;;;;12.35;9.73;;;3.60;1.00;;;;;;5130982;27;20200;-85
2021/11/30 00:43:32;;;;;;;13.43;9.65;;;3.60;1.00;;;;;;5110949;27;20228;-84
2021/11/30 00:46:02;;;;;;;13.95;10.00;;;3.60;1.00;;;;;;5108717;27;20256;-84
2021/11/30 00:48:31;;;;;;;12.00;9.15;;;3.60;1.00;;;;;;5110086;27;20228;-85
2021/11/30 00:51:03;;;;;;;13.80;10.43;;;3.50;1.00;;;;;;5090624;28;21291;-83
2021/11/30 00:53:31;;;;;;;11.63;9.70;;;3.50;1.00;;;;;;5089058;28;20789;-83
2021/11/30 00:55:58;;;;;;;14.25;10.88;;;3.50;1.00;;;;;;5087859;27;20230;-83
2021/11/30 00:58:28;;;;;;;16.63;10.98;;;3.50;1.00;;;;;;5103761;27;20227;-85
2021/11/30 01:00:56;;;;;;;15.55;11.30;;;3.50;1.00;;;;;;5105603;27;20287;-85
2021/11/30 01:03:26;;;;;;;15.63;10.90;;;3.50;1.00;;;;;;5089041;28;20254;-85
2021/11/30 01:05:57;;;;;;;13.70;11.30;;;3.50;1.00;;;;;;5085309;27;20275;-84
2021/11/30 01:08:24;;;;;;;14.73;11.50;;;3.60;1.00;;;;;;5097713;28;20612;-83
2021/11/30 01:10:52;;;;;;;12.93;9.30;;;3.60;1.00;;;;;;5106019;27;20223;-85
2021/11/30 01:13:20;;;;;;;14.18;9.98;;;3.60;1.00;;;;;;5084028;28;20303;-85
2021/11/30 01:15:47;;;;;;;13.65;10.45;;;3.50;1.00;;;;;;5106238;27;20756;-84
2021/11/30 01:18:15;;;;;;;13.63;10.68;;;3.50;1.00;;;;;;5103741;28;20247;-84
2021/11/30 01:20:42;;;;;;;13.00;11.00;;;3.50;1.00;;;;;;5086739;28;20236;-84
2021/11/30 01:23:11;;;;;;;13.80;10.63;;;3.50;1.00;;;;;;5080939;28;20231;-83
2021/11/30 01:25:38;;;;;;;14.68;10.43;;;3.50;1.00;;;;;;5104440;27;20223;-84
2021/11/30 01:28:06;;;;;;;13.18;10.18;;;3.50;1.00;;;;;;5130703;27;20231;-84
2021/11/30 01:30:34;;;;;;;15.15;11.73;;;3.50;1.00;;;;;;5110293;27;21546;-84
2021/11/30 01:33:01;;;;;;;12.73;10.43;;;3.50;1.00;;;;;;5125632;27;20282;-84
2021/11/30 01:35:29;;;;;;;13.70;11.25;;;3.50;1.00;;;;;;5111863;27;20212;-84
2021/11/30 01:37:56;;;;;;;12.98;10.55;;;3.50;1.00;;;;;;5099862;27;20251;-83
2021/11/30 01:40:29;;;;;;;16.92;11.85;;;3.50;1.00;;;;;;5107186;27;20245;-82
2021/11/30 01:43:00;;;;;;;14.73;11.60;;;3.50;1.00;;;;;;5124314;27;20227;-86
2021/11/30 01:45:43;;;;;;;12.77;10.40;;;3.50;1.00;;;;;;5128021;27;20225;-82
2021/11/30 01:51:02;;;;;;;14.95;11.68;;;3.50;1.00;;;;;;5101360;27;20231;-85
2021/11/30 01:53:32;;;;;;;15.35;12.40;;;3.50;1.00;;;;;;5121343;27;20234;-84
2021/11/30 01:56:00;;;;;;;15.02;11.15;;;3.50;1.00;;;;;;5120719;27;20226;-84
2021/11/30 01:58:28;;;;;;;13.65;11.40;;;3.40;1.00;;;;;;5120870;27;20223;-84
2021/11/30 02:00:55;;;;;;;16.15;12.18;;;3.50;1.00;;;;;;5119162;27;20238;-83
2021/11/30 02:03:22;;;;;;;13.30;10.63;;;3.50;1.00;;;;;;5124307;27;21088;-84
2021/11/30 02:05:49;;;;;;;15.73;12.15;;;3.50;1.00;;;;;;5105258;27;20314;-84
2021/11/30 02:08:17;;;;;;;15.93;11.88;;;3.50;1.00;;;;;;5125190;27;20973;-83
2021/11/30 02:10:45;;;;;;;16.00;11.57;;;3.40;1.00;;;;;;5124288;27;20218;-82
2021/11/30 02:13:17;;;;;;;16.00;12.07;;;3.30;1.00;;;;;;5107254;27;20898;-83
2021/11/30 02:15:49;;;;;;;16.38;11.27;;;3.30;1.00;;;;;;5125851;27;20234;-84
2021/11/30 02:18:21;;;;;;;14.40;11.38;;;3.30;1.00;;;;;;5109362;27;20258;-83
2021/11/30 02:20:53;;;;;;;15.43;11.10;;;3.30;1.00;;;;;;5110033;27;20234;-84
2021/11/30 02:23:32;;;;;;;19.05;11.82;;;3.20;1.00;;;;;;5112056;27;20287;-83
2021/11/30 02:26:01;;;;;;;17.15;12.00;;;3.20;1.00;;;;;;5125493;27;20693;-82
2021/11/30 02:28:28;;;;;;;14.82;11.32;;;3.20;1.00;;;;;;5118390;27;20249;-84
2021/11/30 02:30:58;;;;;;;15.85;12.57;;;3.20;1.00;;;;;;5126903;27;21001;-83
2021/11/30 02:33:26;;;;;;;18.00;13.20;;;3.30;1.00;;;;;;5110441;27;20326;-83
2021/11/30 02:35:55;;;;;;;13.88;10.82;;;3.30;1.00;;;;;;5104896;27;20231;-83
2021/11/30 02:38:22;;;;;;;17.70;12.85;;;3.30;1.00;;;;;;5108846;27;20224;-84
2021/11/30 02:40:50;;;;;;;16.20;11.98;;;3.20;1.00;;;;;;5123402;27;20250;-82
2021/11/30 02:43:18;;;;;;;17.83;12.85;;;3.20;1.00;;;;;;5107697;27;20218;-83
2021/11/30 02:45:46;;;;;;;18.67;12.90;;;3.30;1.00;;;;;;5114546;27;20223;-82
2021/11/30 02:48:14;;;;;;;18.52;14.00;;;3.30;1.00;;;;;;5129010;27;21075;-84
2021/11/30 02:50:43;;;;;;;18.63;13.32;;;3.30;1.00;;;;;;5128439;27;20203;-83
2021/11/30 02:53:16;;;;;;;17.60;13.60;;;3.30;1.00;;;;;;5139474;27;20225;-83
2021/11/30 02:55:45;;;;;;;18.38;13.75;;;3.30;1.00;;;;;;5108107;27;20232;-84
2021/11/30 02:58:15;;;;;;;18.77;13.70;;;3.20;1.00;;;;;;5107105;27;20233;-84
2021/11/30 03:00:42;;;;;;;17.63;13.75;;;3.20;1.00;;;;;;5119566;27;20235;-84
2021/11/30 03:03:10;;;;;;;19.45;15.23;;;3.20;1.00;;;;;;5125402;27;20721;-84
2021/11/30 03:05:37;;;;;;;19.40;14.55;;;3.20;1.00;;;;;;5119973;27;20219;-84
2021/11/30 03:08:05;;;;;;;20.67;15.30;;;3.20;1.00;;;;;;5124798;27;21027;-84
2021/11/30 03:10:36;;;;;;;19.15;14.75;;;3.20;1.00;;;;;;5103175;27;20389;-84
2021/11/30 03:13:03;;;;;;;19.65;15.85;;;3.20;1.00;;;;;;5134096;27;20236;-84
2021/11/30 03:15:31;;;;;;;20.10;14.18;;;3.20;1.00;;;;;;5105188;27;20234;-84
2021/11/30 03:18:04;;;;;;;21.52;16.05;;;3.20;1.00;;;;;;5106766;27;20266;-84
2021/11/30 03:20:33;;;;;;;21.42;15.63;;;3.20;1.00;;;;;;5123130;27;20223;-84
2021/11/30 03:23:01;;;;;;;20.15;15.65;;;3.10;1.00;;;;;;5132116;27;20231;-85
2021/11/30 03:25:28;;;;;;;23.92;17.90;;;3.10;1.00;;;;;;5126288;27;20317;-85
2021/11/30 03:27:57;;;;;;;20.75;14.75;;;3.10;1.00;;;;;;5124359;27;20210;-83
2021/11/30 03:30:25;;;;;;;20.25;15.85;;;3.10;1.00;;;;;;5123260;27;20219;-83
2021/11/30 03:35:33;;;;;;;20.23;15.23;;;3.10;1.00;;;;;;5072512;27;20345;-84
2021/11/30 03:38:02;;;;;;;21.85;17.05;;;3.10;1.00;;;;;;5124563;27;20230;-83
2021/11/30 03:40:29;;;;;;;24.25;16.63;;;3.10;1.00;;;;;;5130784;27;20215;-83
2021/11/30 03:42:58;;;;;;;21.80;16.08;;;3.10;1.00;;;;;;5108219;27;20227;-84
2021/11/30 03:45:25;;;;;;;23.80;17.80;;;3.10;1.00;;;;;;5109877;27;20227;-83
2021/11/30 03:47:52;;;;;;;24.45;18.17;;;3.10;1.00;;;;;;5119089;27;20439;-85
2021/11/30 03:50:19;;;;;;;22.73;17.08;;;3.10;1.00;;;;;;5132805;27;20276;-85
2021/11/30 03:52:47;;;;;;;23.65;18.45;;;3.10;1.00;;;;;;5143922;27;20250;-85
2021/11/30 03:55:14;;;;;;;20.75;16.08;;;3.10;1.00;;;;;;5148421;27;20211;-85
2021/11/30 03:57:41;;;;;;;22.02;17.13;;;3.00;1.00;;;;;;5146471;27;20280;-85
2021/11/30 04:00:11;;;;;;;19.80;15.60;;;3.00;1.00;;;;;;5135976;27;20629;-85
2021/11/30 04:02:39;;;;;;;21.58;16.98;;;2.90;1.00;;;;;;5135490;27;20231;-84
2021/11/30 04:05:08;;;;;;;21.00;16.35;;;2.90;1.00;;;;;;5140496;27;20215;-85
2021/11/30 04:07:36;;;;;;;21.52;16.13;;;3.00;1.00;;;;;;5136612;27;20219;-86
2021/11/30 04:10:04;;;;;;;23.02;17.63;;;3.00;1.00;;;;;;5136052;27;20223;-83
2021/11/30 04:12:35;;;;;;;19.70;15.75;;;3.00;1.00;;;;;;5127840;27;20228;-85
2021/11/30 04:15:02;;;;;;;24.15;17.08;;;3.00;1.00;;;;;;5124774;27;20273;-85
2021/11/30 04:17:32;;;;;;;21.77;16.33;;;2.90;1.00;;;;;;5128528;27;20226;-84
2021/11/30 04:19:59;;;;;;;22.92;16.38;;;2.90;1.00;;;;;;5110761;27;20249;-84
2021/11/30 04:22:27;;;;;;;22.65;16.40;;;2.90;1.00;;;;;;5136938;27;20229;-84
2021/11/30 04:24:55;;;;;;;22.02;16.67;;;2.90;1.00;;;;;;5138287;27;20207;-86
2021/11/30 04:27:24;;;;;;;21.20;16.95;;;2.90;1.00;;;;;;5131423;27;20223;-82
2021/11/30 04:29:51;;;;;;;18.95;14.00;;;2.80;1.00;;;;;;5111325;27;20233;-84
2021/11/30 04:32:19;;;;;;;24.13;17.88;;;2.80;1.00;;;;;;5104168;27;21198;-83
2021/11/30 04:34:48;;;;;;;22.45;15.80;;;2.70;1.00;;;;;;5107137;27;20223;-83
2021/11/30 04:37:15;;;;;;;21.33;14.80;;;2.70;1.00;;;;;;5104605;27;20234;-83
2021/11/30 04:39:43;;;;;;;19.80;14.40;;;2.70;1.00;;;;;;5109854;27;20223;-84
2021/11/30 04:42:10;;;;;;;20.90;14.82;;;2.60;1.00;;;;;;5107869;27;20260;-84
2021/11/30 04:44:39;;;;;;;19.35;15.43;;;2.60;1.00;;;;;;5126677;27;20226;-85
2021/11/30 04:47:08;;;;;;;21.20;15.27;;;2.50;1.00;;;;;;5106307;27;20229;-85
2021/11/30 04:49:44;;;;;;;19.65;14.20;;;2.50;1.00;;;;;;5126014;27;20976;-86
2021/11/30 04:52:14;;;;;;;22.17;14.73;;;2.30;1.00;;;;;;5128496;27;20215;-84
2021/11/30 04:54:42;;;;;;;21.60;14.00;;;2.20;1.00;;;;;;5104627;27;20243;-85
2021/11/30 04:57:09;;;;;;;19.17;14.77;;;2.10;1.00;;;;;;5120075;27;22404;-85
2021/11/30 04:59:40;;;;;;;20.60;14.30;;;2.00;1.00;;;;;;5127622;27;20219;-84
2021/11/30 05:02:07;;;;;;;22.67;15.45;;;2.00;1.00;;;;;;5111842;27;20223;-84
2021/11/30 05:04:38;;;;;;;21.23;15.52;;;1.90;1.00;;;;;;5124896;27;20219;-85
2021/11/30 05:07:06;;;;;;;25.35;14.95;;;1.90;1.00;;;;;;5124170;27;20216;-84
2021/11/30 05:09:35;;;;;;;20.65;14.77;;;1.90;1.00;;;;;;5125009;27;20229;-86
2021/11/30 05:12:02;;;;;;;20.80;16.02;;;1.90;1.00;;;;;;5124438;27;20226;-86
2021/11/30 05:14:30;;;;;;;20.42;14.18;;;1.80;1.00;;;;;;5107846;27;20376;-85
2021/11/30 05:16:57;;;;;;;22.73;15.48;;;1.70;1.00;;;;;;5106832;27;20306;-85
2021/11/30 05:19:25;;;;;;;18.73;14.63;;;1.80;1.00;;;;;;5123818;27;20226;-85
2021/11/30 05:21:58;;;;;;;22.73;14.38;;;1.90;1.00;;;;;;5128028;27;20237;-86
2021/11/30 05:24:25;;;;;;;21.42;15.00;;;1.80;1.00;;;;;;5108522;27;20279;-85
2021/11/30 05:26:57;;;;;;;20.35;13.25;;;1.80;1.00;;;;;;5114752;27;20296;-87
2021/11/30 05:29:29;;;;;;;21.83;14.65;;;1.90;1.00;;;;;;5101371;27;20223;-82
2021/11/30 05:31:58;;;;;;;25.40;16.13;;;1.90;1.00;;;;;;5121606;27;20226;-85
2021/11/30 05:34:25;;;;;;;23.35;15.18;;;1.90;1.00;;;;;;5126784;27;20231;-84
2021/11/30 05:36:55;;;;;;;20.70;14.95;;;2.00;1.00;;;;;;5128430;27;20215;-83
2021/11/30 05:39:22;;;;;;;21.45;14.00;;;2.00;1.00;;;;;;5108981;27;20219;-86
2021/11/30 05:41:50;;;;;;;17.90;14.38;;;2.00;1.00;;;;;;5119633;27;20223;-81
2021/11/30 05:45:10;;;;;;;19.42;14.05;;;2.00;1.00;;;;;;5124802;27;20234;-83
2021/11/30 05:56:12;;;;;;;;;;;;;;;;;;;;;
2021/11/30 06:05:46;;;;;;;20.85;12.32;;;1.90;1.00;;;;;;5077434;27;20222;-82
2021/11/30 06:08:14;;;;;;;16.67;11.40;;;1.90;1.00;;;;;;5103903;27;20223;-84
2021/11/30 06:10:41;;;;;;;19.45;11.80;;;1.90;1.00;;;;;;5123102;27;20255;-84
2021/11/30 06:13:09;;;;;;;17.25;11.65;;;1.90;1.00;;;;;;5134740;27;20208;-80
2021/11/30 06:15:37;;;;;;;15.38;10.60;;;2.00;1.00;;;;;;5149703;27;20261;-82
2021/11/30 06:18:06;;;;;;;16.05;11.00;;;2.00;1.00;;;;;;5152450;27;20441;-82
2021/11/30 06:23:25;;;;;;;21.00;13.18;;;2.00;1.00;;;;;;5142156;27;20285;-81
2021/11/30 06:25:53;;;;;;;16.35;11.38;;;1.90;1.00;;;;;;5142441;27;20219;-77
2021/11/30 06:28:20;;;;;;;14.73;10.30;;;2.00;1.00;;;;;;5145402;27;20226;-77
2021/11/30 06:30:51;;;;;;;13.02;9.82;;;2.00;1.00;;;;;;5146607;27;20199;-79
2021/11/30 06:33:18;;;;;;;16.40;10.20;;;2.00;1.00;;;;;;5146214;27;20214;-81
2021/11/30 06:35:46;;;;;;;15.40;10.85;;;2.00;1.00;;;;;;5126857;27;20219;-82
2021/11/30 06:38:19;;;;;;;17.20;11.38;;;2.00;1.00;;;;;;5130715;27;20219;-80
2021/11/30 06:40:50;;;;;;;17.33;11.30;;;2.00;1.00;;;;;;5142615;27;20191;-81
2021/11/30 06:43:17;;;;;;;16.75;11.52;;;2.00;1.00;;;;;;5142940;27;20287;-78
2021/11/30 06:45:45;;;;;;;14.77;9.25;;;2.00;1.00;;;;;;5141786;27;20316;-81
2021/11/30 06:48:15;;;;;;;15.65;11.07;;;2.00;1.00;;;;;;5144662;27;20230;-80
2021/11/30 06:50:43;;;;;;;12.45;9.52;;;2.00;1.00;;;;;;5142089;27;20203;-79
2021/11/30 06:53:11;;;;;;;16.58;11.02;;;2.00;1.00;;;;;;5119902;27;20235;-80
2021/11/30 06:55:38;;;;;;;15.95;11.57;;;2.10;1.00;;;;;;5124943;27;20223;-81
2021/11/30 06:58:06;;;;;;;16.98;10.20;;;2.10;1.00;;;;;;5118508;27;20215;-83
2021/11/30 07:00:33;;;;;;;15.82;11.05;;;2.10;1.00;;;;;;5118242;27;20218;-81
2021/11/30 07:03:03;;;;;;;13.57;10.15;;;2.10;1.00;;;;;;5120523;27;20790;-79
2021/11/30 07:05:36;;;;;;;18.52;11.75;;;2.10;1.00;;;;;;5104454;27;20303;-78
2021/11/30 07:08:16;;;;;;;14.30;10.80;;;2.10;1.00;;;;;;5135898;27;20986;-78
2021/11/30 07:10:46;;;;;;;17.20;10.55;;;2.20;1.00;;;;;;5131462;27;20210;-79
2021/11/30 07:13:22;;;;;;;13.93;10.13;;;2.20;1.00;;;;;;5127090;27;20241;-80
2021/11/30 07:15:52;;;;;;;15.48;11.00;;;2.20;1.00;;;;;;5131610;27;20262;-79
2021/11/30 07:18:22;;;;;;;15.27;10.32;;;2.20;1.00;;;;;;5123419;27;21611;-80
2021/11/30 07:20:52;;;;;;;16.75;11.02;;;2.20;1.00;;;;;;5123040;27;20303;-80
2021/11/30 07:23:19;;;;;;;17.02;10.93;;;2.20;1.00;;;;;;5109419;27;20246;-78
2021/11/30 07:25:51;;;;;;;14.52;10.75;;;2.20;1.00;;;;;;5123245;27;21001;-80
2021/11/30 07:28:18;;;;;;;17.10;11.27;;;2.20;1.00;;;;;;5125116;27;20225;-79
2021/11/30 07:30:46;;;;;;;15.60;11.73;;;2.20;1.00;;;;;;5123728;27;20225;-79
2021/11/30 07:33:13;;;;;;;13.80;11.02;;;2.20;1.00;;;;;;5126366;27;20226;-79
2021/11/30 07:35:40;;;;;;;14.40;10.82;;;2.20;1.00;;;;;;5121605;27;20233;-81
2021/11/30 07:38:09;;;;;;;15.57;10.35;;;2.20;1.00;;;;;;5134854;27;20219;-79
2021/11/30 07:40:36;;;;;;;15.85;11.52;;;2.20;1.00;;;;;;5106104;27;20275;-79
2021/11/30 07:43:03;;;;;;;14.10;10.68;;;2.20;1.00;;;;;;5131516;27;20226;-78
2021/11/30 07:45:31;;;;;;;13.90;10.05;;;2.20;1.00;;;;;;5133974;27;20253;-83
2021/11/30 07:47:59;;;;;;;18.15;11.50;;;2.20;1.00;;;;;;5107542;27;20829;-80
2021/11/30 07:50:27;;;;;;;16.20;10.27;;;2.20;1.00;;;;;;5105397;27;20230;-78
2021/11/30 07:52:58;;;;;;;13.65;9.57;;;2.20;1.00;;;;;;5137555;27;20215;-80
2021/11/30 07:55:32;;;;;;;15.82;11.50;;;2.20;1.00;;;;;;5118754;27;20238;-79
2021/11/30 07:57:59;;;;;;;12.35;10.07;;;2.20;1.00;;;;;;5114057;27;20259;-78
2021/11/30 08:00:30;;;;;;;14.85;11.65;;;2.20;1.00;;;;;;5109191;27;20244;-77
2021/11/30 08:03:05;;;;;;;13.55;9.23;;;2.20;1.00;;;;;;5126978;27;20326;-78
2021/11/30 08:05:36;;;;;;;14.90;11.00;;;2.10;1.00;;;;;;5106709;27;20230;-80
2021/11/30 08:08:06;;;;;;;11.75;9.85;;;2.10;1.00;;;;;;5112489;27;20226;-80
2021/11/30 08:10:38;;;;;;;12.05;8.93;;;2.20;1.00;;;;;;5120203;27;20319;-78
2021/11/30 08:13:10;;;;;;;13.02;9.75;;;2.20;1.00;;;;;;5123211;27;20344;-80
2021/11/30 08:15:40;;;;;;;12.80;9.85;;;2.20;1.00;;;;;;5114265;27;20285;-80
2021/11/30 08:18:11;;;;;;;12.05;9.88;;;2.20;1.00;;;;;;5124289;27;20219;-78
2021/11/30 08:20:41;;;;;;;13.13;10.35;;;2.30;1.00;;;;;;5121147;27;20266;-78
2021/11/30 08:32:45;;;;;;;14.30;10.35;;;2.30;1.00;;;;;;5019561;28;20258;-81
2021/11/30 08:35:12;;;;;;;11.35;9.00;;;2.40;1.00;;;;;;5063781;28;20263;-79
2021/11/30 08:37:40;;;;;;;9.90;7.82;;;2.40;1.00;;;;;;5099274;28;20347;-79
2021/11/30 08:40:11;;;;;;;11.30;9.05;;;2.40;1.00;;;;;;5100101;28;20220;-79
2021/11/30 08:42:41;;;;;;;10.40;8.60;;;2.40;1.00;;;;;;5100384;28;20228;-79
2021/11/30 08:45:10;;;;;;;11.40;8.63;;;2.40;1.00;;;;;;5091374;28;20273;-79
2021/11/30 08:47:39;;;;;;;10.52;8.57;;;2.40;1.00;;;;;;5118195;28;20228;-80
2021/11/30 08:50:12;;;;;;;10.32;8.35;;;2.40;1.00;;;;;;5115420;28;20248;-78
2021/11/30 08:52:40;;;;;;;10.52;8.35;;;2.50;1.00;;;;;;5114347;28;20235;-81
2021/11/30 08:55:09;;;;;;;12.25;9.80;;;2.50;1.00;;;;;;5102227;27;20261;-79
2021/11/30 08:57:37;;;;;;;12.65;9.25;;;2.50;1.00;;;;;;5113545;28;20227;-78
2021/11/30 09:00:08;;;;;;;10.73;8.35;;;2.50;1.00;;;;;;5109086;28;20227;-78
2021/11/30 09:02:36;;;;;;;9.07;7.70;;;2.50;1.00;;;;;;5112445;28;20577;-78
2021/11/30 09:05:07;;;;;;;12.02;9.07;;;2.60;1.00;;;;;;5110612;28;20226;-79
2021/11/30 09:07:35;;;;;;;9.65;8.10;;;2.60;1.00;;;;;;5106789;28;20239;-79
2021/11/30 09:10:03;;;;;;;9.52;7.53;;;2.60;1.00;;;;;;5105397;28;20220;-81
2021/11/30 09:12:30;;;;;;;10.55;7.80;;;2.60;1.00;;;;;;5115695;27;20264;-79
2021/11/30 09:14:57;;;;;;;9.00;7.75;;;2.70;1.00;;;;;;5087822;28;20229;-79
2021/11/30 09:17:24;;;;;;;8.60;7.35;;;2.70;1.00;;;;;;5099656;28;20291;-79
2021/11/30 09:19:52;;;;;;;9.15;6.95;;;2.80;1.00;;;;;;5099998;27;20247;-79
2021/11/30 09:22:21;;;;;;;7.53;6.63;;;2.70;1.00;;;;;;5099700;28;20231;-79
2021/11/30 09:24:49;;;;;;;9.38;7.13;;;2.70;1.00;;;;;;5104558;28;20217;-79
2021/11/30 09:27:16;;;;;;;9.93;8.02;;;2.70;1.00;;;;;;5102494;28;20215;-81
2021/11/30 09:29:43;;;;;;;8.27;6.45;;;2.80;1.00;;;;;;5077475;28;20223;-78
2021/11/30 09:32:11;;;;;;;8.93;6.93;;;2.80;1.00;;;;;;5081136;28;20228;-81
2021/11/30 09:34:38;;;;;;;8.48;6.72;;;2.80;1.00;;;;;;5103307;28;20220;-80
2021/11/30 09:37:23;;;;;;;8.13;7.18;;;2.80;1.00;;;;;;5097371;28;20246;-79
2021/11/30 09:40:02;;;;;;;9.82;6.45;;;2.80;1.00;;;;;;5119414;27;20211;-78
2021/11/30 09:42:30;;;;;;;8.52;7.63;;;2.90;1.00;;;;;;5115511;28;20274;-80
2021/11/30 09:44:57;;;;;;;7.07;6.00;;;2.90;1.00;;;;;;5105740;28;20227;-80
2021/11/30 09:48:02;;;;;;;9.00;6.90;;;2.90;1.00;;;;;;5096706;28;20234;-82
2021/11/30 09:50:30;;;;;;;7.30;6.45;;;2.90;1.00;;;;;;5101333;27;20228;-79
2021/11/30 09:53:20;;;;;;;7.50;6.07;;;3.00;1.00;;;;;;5099110;27;20219;-80
2021/11/30 09:55:50;;;;;;;9.25;6.05;;;3.10;1.00;;;;;;5097839;27;20227;-80
2021/11/30 09:58:24;;;;;;;6.68;5.97;;;3.10;1.00;;;;;;5112279;27;20231;-80
2021/11/30 10:03:48;;;;;;;7.53;6.75;;;3.20;1.00;;;;;;5105838;28;20238;-81
2021/11/30 10:06:16;;;;;;;6.90;6.00;;;3.20;1.00;;;;;;5113589;27;20197;-80
2021/11/30 10:08:55;;;;;;;8.60;7.60;;;3.30;1.00;;;;;;5089208;28;20216;-82
2021/11/30 10:11:42;;;;;;;7.32;6.55;;;3.30;1.00;;;;;;5098971;28;20224;-81
2021/11/30 10:14:14;;;;;;;7.53;6.57;;;3.30;1.00;;;;;;5098304;28;20875;-79
2021/11/30 10:17:30;;;;;;;7.80;6.40;;;3.40;1.00;;;;;;5102299;27;20240;-81
2021/11/30 10:20:14;;;;;;;8.45;7.65;;;3.50;1.00;;;;;;5083992;28;20227;-80
2021/11/30 10:22:55;;;;;;;7.28;6.57;;;3.50;1.00;;;;;;5081630;28;20331;-81
2021/11/30 10:26:09;;;;;;;7.78;6.95;;;3.50;1.00;;;;;;5101407;28;20217;-82
2021/11/30 10:28:40;;;;;;;10.10;8.05;;;3.60;1.00;;;;;;5062750;28;20219;-80
2021/11/30 10:31:13;;;;;;;10.18;8.38;;;3.70;1.00;;;;;;5099734;28;20223;-82
2021/11/30 10:33:47;;;;;;;6.72;6.03;;;3.80;1.00;;;;;;5076114;28;20232;-84
2021/11/30 10:36:21;;;;;;;8.18;7.10;;;3.80;1.00;;;;;;5096028;28;20732;-82
2021/11/30 10:38:51;;;;;;;8.40;7.50;;;3.90;1.00;;;;;;5090047;27;20238;-81
2021/11/30 10:41:21;;;;;;;7.43;6.72;;;3.90;1.00;;;;;;5081810;28;20243;-83
2021/11/30 10:43:57;;;;;;;7.65;6.95;;;4.00;1.00;;;;;;5099876;28;20222;-81
2021/11/30 10:46:29;;;;;;;7.43;6.63;;;4.10;1.00;;;;;;5101338;28;20224;-80
2021/11/30 10:49:01;;;;;;;7.88;6.80;;;4.20;1.00;;;;;;5103837;28;20226;-82
2021/11/30 10:51:46;;;;;;;7.57;6.78;;;4.30;1.00;;;;;;5108077;28;20216;-79
2021/11/30 10:54:19;;;;;;;7.00;6.35;;;4.30;1.00;;;;;;5095019;28;20223;-81
2021/11/30 10:57:03;;;;;;;7.03;6.10;;;4.40;1.00;;;;;;5089081;28;20283;-80
2021/11/30 10:59:32;;;;;;;6.30;5.70;;;4.40;1.00;;;;;;5093935;28;20216;-82
2021/11/30 11:02:00;;;;;;;7.82;6.13;;;4.40;1.00;;;;;;5081915;28;21002;-84
2021/11/30 11:04:29;;;;;;;9.75;7.28;;;4.50;1.00;;;;;;5094159;28;20223;-78
2021/11/30 11:07:09;;;;;;;7.43;6.25;;;4.60;1.00;;;;;;5095993;28;20223;-81
2021/11/30 11:09:43;;;;;;;8.00;7.20;;;4.60;1.00;;;;;;5093315;28;20308;-79
2021/11/30 11:12:11;;;;;;;7.00;6.30;;;4.70;1.00;;;;;;5076998;28;20262;-80
2021/11/30 11:14:59;;;;;;;7.32;6.65;;;4.70;1.00;;;;;;5079110;28;20322;-79
2021/11/30 11:17:39;;;;;;;6.85;5.85;;;4.70;1.00;;;;;;5104698;28;20800;-78
2021/11/30 11:20:39;;;;;;;6.78;5.95;;;4.70;1.00;;;;;;5108172;27;20216;-79
2021/11/30 11:23:06;;;;;;;6.95;5.88;;;4.80;1.00;;;;;;5074419;28;20236;-79
2021/11/30 11:25:33;;;;;;;6.45;5.75;;;4.80;1.00;;;;;;5092637;27;20224;-77
2021/11/30 11:28:15;;;;;;;7.75;5.35;;;4.90;1.00;;;;;;5078168;28;20250;-80
2021/11/30 11:30:46;;;;;;;5.68;5.07;;;5.00;1.00;;;;;;5084846;28;21458;-78
2021/11/30 11:33:17;;;;;;;6.55;4.72;;;5.00;1.00;;;;;;5079634;28;20227;-78
2021/11/30 11:35:48;;;;;;;6.47;4.85;;;5.00;1.00;;;;;;5095337;28;20228;-79
2021/11/30 11:38:18;;;;;;;5.50;4.35;;;5.10;1.00;;;;;;5091304;28;20329;-80
2021/11/30 11:40:49;;;;;;;5.53;3.92;;;5.10;1.00;;;;;;5096008;28;20220;-78
2021/11/30 11:43:17;;;;;;;5.65;3.88;;;5.20;1.00;;;;;;5076450;28;20235;-78
2021/11/30 11:45:47;;;;;;;8.30;4.28;;;5.20;1.00;;;;;;5101273;28;20416;-78
2021/11/30 11:48:23;;;;;;;4.65;3.60;;;5.20;1.00;;;;;;5084352;28;20255;-78
2021/11/30 11:51:01;;;;;;;4.40;3.85;;;5.20;1.00;;;;;;5083372;28;20220;-78
2021/11/30 11:53:33;;;;;;;5.55;3.50;;;5.30;1.00;;;;;;5083674;28;20238;-79
2021/11/30 11:56:23;;;;;;;5.20;2.20;;;5.40;1.00;;;;;;5080642;28;20235;-79
2021/11/30 11:59:15;;;;;;;5.18;2.30;;;5.30;1.00;;;;;;5077610;28;20312;-79
2021/11/30 12:01:47;;;;;;;3.65;2.30;;;5.30;1.00;;;;;;5084844;28;20236;-79
2021/11/30 12:04:16;;;;;;;5.32;1.67;;;5.30;1.00;;;;;;5100768;28;20300;-79
2021/11/30 12:06:51;;;;;;;5.30;2.40;;;5.30;1.00;;;;;;5088767;28;21097;-81
2021/11/30 12:09:22;;;;;;;8.00;2.35;;;5.30;1.00;;;;;;5081706;28;20328;-81
2021/11/30 12:11:52;;;;;;;10.75;2.65;;;5.30;1.00;;;;;;5084589;28;20250;-82
2021/11/30 12:14:22;;;;;;;6.18;2.15;;;5.30;1.00;;;;;;5101549;28;20302;-83
2021/11/30 12:17:11;;;;;;;7.05;2.30;;;5.20;1.00;;;;;;5120813;27;20262;-79
2021/11/30 12:19:42;;;;;;;6.13;2.88;;;5.20;1.00;;;;;;5115667;28;20212;-79
2021/11/30 12:22:11;;;;;;;9.57;3.00;;;5.20;1.00;;;;;;5100152;28;20220;-82
2021/11/30 12:24:46;;;;;;;5.15;2.08;;;5.20;1.00;;;;;;5103306;28;20220;-82
2021/11/30 12:27:46;;;;;;;3.80;1.73;;;5.20;1.00;;;;;;5099013;28;20227;-81
2021/11/30 12:30:40;;;;;;;7.03;1.92;;;5.20;1.00;;;;;;5083609;28;20297;-79
2021/11/30 12:33:17;;;;;;;4.85;1.63;;;5.20;1.00;;;;;;5100664;28;20216;-81
2021/11/30 12:35:53;;;;;;;3.80;2.08;;;5.10;1.00;;;;;;5098649;28;21428;-83
2021/11/30 12:38:29;;;;;;;5.07;2.35;;;5.10;1.00;;;;;;5100905;28;20231;-84
2021/11/30 12:40:57;;;;;;;7.55;2.72;;;5.20;1.00;;;;;;5106148;28;20290;-81
2021/11/30 12:43:33;;;;;;;11.77;3.28;;;5.20;1.00;;;;;;5110032;28;20374;-84
2021/11/30 12:46:29;;;;;;;6.97;2.55;;;5.30;1.00;;;;;;5079428;28;20220;-81
2021/11/30 12:48:58;;;;;;;6.40;2.72;;;5.30;1.00;;;;;;5097616;28;20298;-82
2021/11/30 12:51:31;;;;;;;11.85;3.72;;;5.40;1.00;;;;;;5101643;28;20226;-82
2021/11/30 12:53:59;;;;;;;10.60;3.08;;;5.50;1.00;;;;;;5085254;28;20256;-80
2021/11/30 12:56:46;;;;;;;8.20;2.60;;;5.50;1.00;;;;;;5102465;28;20294;-81
2021/11/30 12:59:15;;;;;;;8.45;3.10;;;5.60;1.00;;;;;;5105679;28;20219;-81
2021/11/30 13:01:42;;;;;;;8.05;3.58;;;5.60;1.00;;;;;;5104375;28;20240;-80
2021/11/30 13:04:31;;;;;;;8.43;3.90;;;5.60;1.00;;;;;;5109530;27;22499;-82
2021/11/30 13:07:09;;;;;;;7.82;2.90;;;5.60;1.00;;;;;;5095854;28;20224;-81
2021/11/30 13:09:47;;;;;;;7.82;2.97;;;5.70;1.00;;;;;;5086749;28;21044;-80
2021/11/30 13:12:19;;;;;;;9.52;3.15;;;5.80;1.00;;;;;;5090345;28;20231;-83
2021/11/30 13:14:51;;;;;;;10.05;5.22;;;5.70;1.00;;;;;;5097814;28;20216;-79
2021/11/30 13:17:19;;;;;;;8.52;3.42;;;5.70;1.00;;;;;;5097280;28;20235;-82
2021/11/30 13:19:49;;;;;;;8.07;2.88;;;5.80;1.00;;;;;;5102355;28;20230;-80
2021/11/30 13:22:18;;;;;;;7.38;2.97;;;5.80;1.00;;;;;;5094400;28;20220;-80
2021/11/30 13:24:52;;;;;;;14.27;3.97;;;5.80;1.00;;;;;;5098509;27;20216;-80
2021/11/30 13:27:24;;;;;;;8.43;4.00;;;5.80;1.00;;;;;;5099578;28;20215;-81
2021/11/30 13:30:00;;;;;;;9.10;3.47;;;5.80;1.00;;;;;;5095143;28;20730;-79
2021/11/30 13:32:30;;;;;;;10.45;3.85;;;5.80;1.00;;;;;;5099493;28;20296;-79
2021/11/30 13:35:12;;;;;;;6.65;3.17;;;5.80;1.00;;;;;;5094664;28;20223;-80
2021/11/30 13:37:57;;;;;;;7.03;3.15;;;5.80;1.00;;;;;;5077392;28;20231;-79
2021/11/30 13:40:34;;;;;;;6.97;2.10;;;5.40;1.00;;;;;;5079468;28;20272;-79
2021/11/30 13:43:02;;;;;;;6.07;2.30;;;5.10;1.00;;;;;;5092211;27;20297;-82
2021/11/30 13:45:41;;;;;;;3.50;1.58;;;5.00;1.00;;;;;;5093215;28;20320;-83
2021/11/30 13:48:10;;;;;;;6.03;2.15;;;5.00;1.00;;;;;;5102006;27;20261;-84
2021/11/30 13:50:41;;;;;;;9.38;3.42;;;5.10;1.00;;;;;;5093686;28;20300;-82
2021/11/30 13:53:15;;;;;;;6.78;2.45;;;5.10;1.00;;;;;;5102900;28;20255;-85
2021/11/30 13:55:45;;;;;;;11.55;2.75;;;5.10;1.00;;;;;;5091576;28;20234;-80
2021/11/30 13:58:17;;;;;;;11.57;3.28;;;5.20;1.00;;;;;;5093918;28;20319;-79